sensor_id;sensor_type;location;lat;lon;timestamp;temperature;humidity
34740;DHT22;20967;48.442;9.994;2023-05-29T00:02:18;11.80;99.90
34740;DHT22;20967;48.442;9.994;2023-05-29T00:04:46;11.90;99.90
34740;DHT22;20967;48.442;9.994;2023-05-29T00:07:13;11.70;99.90
34740;DHT22;20967;48.442;9.994;2023-05-29T00:09:41;11.60;99.90
34740;DHT22;20967;48.442;9.994;2023-05-29T00:12:09;11.50;99.90
34740;DHT22;20967;48.442;9.994;2023-05-29T00:14:38;11.60;99.90
34740;DHT22;20967;48.442;9.994;2023-05-29T00:17:06;11.60;99.90
34740;DHT22;20967;48.442;9.994;2023-05-29T00:19:34;11.40;99.90
34740;DHT22;20967;48.442;9.994;2023-05-29T00:22:02;11.30;99.90
34740;DHT22;20967;48.442;9.994;2023-05-29T00:24:29;11.30;99.90
34740;DHT22;20967;48.442;9.994;2023-05-29T00:26:57;11.30;99.90
34740;DHT22;20967;48.442;9.994;2023-05-29T00:29:25;11.30;99.90
34740;DHT22;20967;48.442;9.994;2023-05-29T00:31:54;11.30;99.90
34740;DHT22;20967;48.442;9.994;2023-05-29T00:34:23;11.20;99.90
34740;DHT22;20967;48.442;9.994;2023-05-29T00:36:52;11.20;99.90
34740;DHT22;20967;48.442;9.994;2023-05-29T00:39:21;11.30;99.90
34740;DHT22;20967;48.442;9.994;2023-05-29T00:41:49;11.30;99.90
34740;DHT22;20967;48.442;9.994;2023-05-29T00:44:18;11.10;99.90
34740;DHT22;20967;48.442;9.994;2023-05-29T00:46:48;11.20;99.90
34740;DHT22;20967;48.442;9.994;2023-05-29T00:49:17;11.10;99.90
34740;DHT22;20967;48.442;9.994;2023-05-29T00:51:45;10.90;99.90
34740;DHT22;20967;48.442;9.994;2023-05-29T00:54:15;11.10;99.90
34740;DHT22;20967;48.442;9.994;2023-05-29T00:56:44;11.00;99.90
34740;DHT22;20967;48.442;9.994;2023-05-29T00:59:12;10.90;99.90
34740;DHT22;20967;48.442;9.994;2023-05-29T01:01:40;11.00;99.90
34740;DHT22;20967;48.442;9.994;2023-05-29T01:04:09;11.00;99.90
34740;DHT22;20967;48.442;9.994;2023-05-29T01:06:40;10.90;99.90
34740;DHT22;20967;48.442;9.994;2023-05-29T01:09:08;10.80;99.90
34740;DHT22;20967;48.442;9.994;2023-05-29T01:12:15;10.70;99.90
34740;DHT22;20967;48.442;9.994;2023-05-29T01:22:38;10.80;99.90
34740;DHT22;20967;48.442;9.994;2023-05-29T01:25:21;10.80;99.90
34740;DHT22;20967;48.442;9.994;2023-05-29T01:27:48;10.80;99.90
34740;DHT22;20967;48.442;9.994;2023-05-29T01:30:17;10.70;99.90
34740;DHT22;20967;48.442;9.994;2023-05-29T01:32:46;10.70;99.90
34740;DHT22;20967;48.442;9.994;2023-05-29T01:35:14;10.60;99.90
34740;DHT22;20967;48.442;9.994;2023-05-29T01:37:42;10.70;99.90
34740;DHT22;20967;48.442;9.994;2023-05-29T01:40:10;10.70;99.90
34740;DHT22;20967;48.442;9.994;2023-05-29T01:42:39;10.70;99.90
34740;DHT22;20967;48.442;9.994;2023-05-29T01:45:07;10.70;99.90
34740;DHT22;20967;48.442;9.994;2023-05-29T01:47:36;10.70;99.90
34740;DHT22;20967;48.442;9.994;2023-05-29T01:50:04;10.70;99.90
34740;DHT22;20967;48.442;9.994;2023-05-29T01:52:32;10.80;99.90
34740;DHT22;20967;48.442;9.994;2023-05-29T01:55:00;10.70;99.90
34740;DHT22;20967;48.442;9.994;2023-05-29T01:57:28;10.60;99.90
34740;DHT22;20967;48.442;9.994;2023-05-29T01:59:56;10.40;99.90
34740;DHT22;20967;48.442;9.994;2023-05-29T02:02:24;10.40;99.90
34740;DHT22;20967;48.442;9.994;2023-05-29T02:04:51;10.40;99.90
34740;DHT22;20967;48.442;9.994;2023-05-29T02:07:20;10.30;99.90
34740;DHT22;20967;48.442;9.994;2023-05-29T02:09:47;10.40;99.90
34740;DHT22;20967;48.442;9.994;2023-05-29T02:12:15;10.40;99.90
34740;DHT22;20967;48.442;9.994;2023-05-29T02:14:43;10.50;99.90
34740;DHT22;20967;48.442;9.994;2023-05-29T02:17:11;10.60;99.90
34740;DHT22;20967;48.442;9.994;2023-05-29T02:19:39;10.70;99.90
34740;DHT22;20967;48.442;9.994;2023-05-29T02:22:08;10.60;99.90
34740;DHT22;20967;48.442;9.994;2023-05-29T02:24:36;10.60;99.90
34740;DHT22;20967;48.442;9.994;2023-05-29T02:27:04;10.60;99.90
34740;DHT22;20967;48.442;9.994;2023-05-29T02:29:32;10.60;99.90
34740;DHT22;20967;48.442;9.994;2023-05-29T02:32:00;10.60;99.90
34740;DHT22;20967;48.442;9.994;2023-05-29T02:34:28;10.60;99.90
34740;DHT22;20967;48.442;9.994;2023-05-29T02:36:55;10.50;99.90
34740;DHT22;20967;48.442;9.994;2023-05-29T02:39:25;10.60;99.90
34740;DHT22;20967;48.442;9.994;2023-05-29T02:41:53;10.50;99.90
34740;DHT22;20967;48.442;9.994;2023-05-29T02:44:21;10.50;99.90
34740;DHT22;20967;48.442;9.994;2023-05-29T02:46:49;10.30;99.90
34740;DHT22;20967;48.442;9.994;2023-05-29T02:49:17;10.40;99.90
34740;DHT22;20967;48.442;9.994;2023-05-29T02:51:45;10.40;99.90
34740;DHT22;20967;48.442;9.994;2023-05-29T02:54:12;10.50;99.90
34740;DHT22;20967;48.442;9.994;2023-05-29T02:56:40;10.60;99.90
34740;DHT22;20967;48.442;9.994;2023-05-29T02:59:08;10.60;99.90
34740;DHT22;20967;48.442;9.994;2023-05-29T03:01:36;10.50;99.90
34740;DHT22;20967;48.442;9.994;2023-05-29T03:04:04;10.70;99.90
34740;DHT22;20967;48.442;9.994;2023-05-29T03:06:32;10.50;99.90
34740;DHT22;20967;48.442;9.994;2023-05-29T03:08:59;10.60;99.90
34740;DHT22;20967;48.442;9.994;2023-05-29T03:11:27;10.50;99.90
34740;DHT22;20967;48.442;9.994;2023-05-29T03:13:55;10.50;99.90
34740;DHT22;20967;48.442;9.994;2023-05-29T03:16:23;10.50;99.90
34740;DHT22;20967;48.442;9.994;2023-05-29T03:18:51;10.50;99.90
34740;DHT22;20967;48.442;9.994;2023-05-29T03:21:19;10.50;99.90
34740;DHT22;20967;48.442;9.994;2023-05-29T03:23:48;10.40;99.90
34740;DHT22;20967;48.442;9.994;2023-05-29T03:26:15;10.30;99.90
34740;DHT22;20967;48.442;9.994;2023-05-29T03:28:43;10.30;99.90
34740;DHT22;20967;48.442;9.994;2023-05-29T03:31:11;10.20;99.90
34740;DHT22;20967;48.442;9.994;2023-05-29T03:33:39;10.10;99.90
34740;DHT22;20967;48.442;9.994;2023-05-29T03:36:06;10.10;99.90
34740;DHT22;20967;48.442;9.994;2023-05-29T03:38:34;10.10;99.90
34740;DHT22;20967;48.442;9.994;2023-05-29T03:41:02;10.40;99.90
34740;DHT22;20967;48.442;9.994;2023-05-29T03:43:30;10.60;99.90
34740;DHT22;20967;48.442;9.994;2023-05-29T03:45:58;10.80;99.90
34740;DHT22;20967;48.442;9.994;2023-05-29T03:48:26;11.10;99.90
34740;DHT22;20967;48.442;9.994;2023-05-29T03:50:53;11.40;99.90
34740;DHT22;20967;48.442;9.994;2023-05-29T03:53:21;11.60;99.90
34740;DHT22;20967;48.442;9.994;2023-05-29T03:55:49;11.90;99.90
34740;DHT22;20967;48.442;9.994;2023-05-29T03:58:19;12.20;99.90
34740;DHT22;20967;48.442;9.994;2023-05-29T04:00:46;12.50;99.90
34740;DHT22;20967;48.442;9.994;2023-05-29T04:03:14;12.80;99.90
34740;DHT22;20967;48.442;9.994;2023-05-29T04:05:42;13.10;99.90
34740;DHT22;20967;48.442;9.994;2023-05-29T04:08:10;13.40;99.90
34740;DHT22;20967;48.442;9.994;2023-05-29T04:10:39;13.70;99.90
34740;DHT22;20967;48.442;9.994;2023-05-29T04:13:07;14.10;99.90
34740;DHT22;20967;48.442;9.994;2023-05-29T04:15:35;14.30;99.90
34740;DHT22;20967;48.442;9.994;2023-05-29T04:18:04;14.40;99.90
34740;DHT22;20967;48.442;9.994;2023-05-29T04:20:32;15.10;99.90
34740;DHT22;20967;48.442;9.994;2023-05-29T04:23:00;15.30;99.90
34740;DHT22;20967;48.442;9.994;2023-05-29T04:25:32;15.50;99.90
34740;DHT22;20967;48.442;9.994;2023-05-29T04:28:00;15.60;99.90
34740;DHT22;20967;48.442;9.994;2023-05-29T04:30:29;15.80;99.90
34740;DHT22;20967;48.442;9.994;2023-05-29T04:32:59;15.70;99.90
34740;DHT22;20967;48.442;9.994;2023-05-29T04:35:26;16.30;99.90
34740;DHT22;20967;48.442;9.994;2023-05-29T04:37:57;16.60;99.90
34740;DHT22;20967;48.442;9.994;2023-05-29T04:40:25;16.60;99.90
34740;DHT22;20967;48.442;9.994;2023-05-29T04:42:53;16.70;99.90
34740;DHT22;20967;48.442;9.994;2023-05-29T04:45:21;16.70;99.90
34740;DHT22;20967;48.442;9.994;2023-05-29T04:47:49;16.90;99.90
34740;DHT22;20967;48.442;9.994;2023-05-29T04:50:19;17.00;99.90
34740;DHT22;20967;48.442;9.994;2023-05-29T04:52:47;16.80;99.90
34740;DHT22;20967;48.442;9.994;2023-05-29T04:55:15;17.10;99.90
34740;DHT22;20967;48.442;9.994;2023-05-29T04:57:43;17.20;99.90
34740;DHT22;20967;48.442;9.994;2023-05-29T05:00:11;17.20;99.90
34740;DHT22;20967;48.442;9.994;2023-05-29T05:02:42;17.30;99.90
34740;DHT22;20967;48.442;9.994;2023-05-29T05:05:11;17.30;99.90
34740;DHT22;20967;48.442;9.994;2023-05-29T05:07:39;17.30;99.90
34740;DHT22;20967;48.442;9.994;2023-05-29T05:10:07;17.50;99.90
34740;DHT22;20967;48.442;9.994;2023-05-29T05:12:35;17.80;99.90
34740;DHT22;20967;48.442;9.994;2023-05-29T05:15:04;18.10;99.90
34740;DHT22;20967;48.442;9.994;2023-05-29T05:17:32;18.10;99.90
34740;DHT22;20967;48.442;9.994;2023-05-29T05:20:00;18.10;99.90
34740;DHT22;20967;48.442;9.994;2023-05-29T05:22:28;18.00;99.90
34740;DHT22;20967;48.442;9.994;2023-05-29T05:24:56;18.50;99.90
34740;DHT22;20967;48.442;9.994;2023-05-29T05:27:25;18.50;99.90
34740;DHT22;20967;48.442;9.994;2023-05-29T05:29:53;18.20;99.90
34740;DHT22;20967;48.442;9.994;2023-05-29T05:32:21;18.10;99.90
34740;DHT22;20967;48.442;9.994;2023-05-29T05:34:48;18.20;99.90
34740;DHT22;20967;48.442;9.994;2023-05-29T05:37:17;18.20;99.90
34740;DHT22;20967;48.442;9.994;2023-05-29T05:39:45;18.60;99.90
34740;DHT22;20967;48.442;9.994;2023-05-29T05:42:12;18.70;99.90
34740;DHT22;20967;48.442;9.994;2023-05-29T05:44:40;18.80;99.90
34740;DHT22;20967;48.442;9.994;2023-05-29T05:47:08;18.90;99.90
34740;DHT22;20967;48.442;9.994;2023-05-29T05:49:36;18.70;99.90
34740;DHT22;20967;48.442;9.994;2023-05-29T05:52:04;18.60;99.90
34740;DHT22;20967;48.442;9.994;2023-05-29T05:54:32;18.40;99.90
34740;DHT22;20967;48.442;9.994;2023-05-29T05:56:59;19.10;99.90
34740;DHT22;20967;48.442;9.994;2023-05-29T05:59:27;19.00;99.90
34740;DHT22;20967;48.442;9.994;2023-05-29T06:01:55;19.40;99.90
34740;DHT22;20967;48.442;9.994;2023-05-29T06:04:23;19.60;99.90
34740;DHT22;20967;48.442;9.994;2023-05-29T06:06:51;19.20;99.90
34740;DHT22;20967;48.442;9.994;2023-05-29T06:09:19;18.90;99.90
34740;DHT22;20967;48.442;9.994;2023-05-29T06:11:47;18.40;99.90
34740;DHT22;20967;48.442;9.994;2023-05-29T06:14:17;18.20;99.90
34740;DHT22;20967;48.442;9.994;2023-05-29T06:16:45;17.80;99.90
34740;DHT22;20967;48.442;9.994;2023-05-29T06:19:13;17.30;99.90
34740;DHT22;20967;48.442;9.994;2023-05-29T06:21:41;16.90;99.90
34740;DHT22;20967;48.442;9.994;2023-05-29T06:24:09;17.00;99.90
34740;DHT22;20967;48.442;9.994;2023-05-29T06:26:37;16.90;99.90
34740;DHT22;20967;48.442;9.994;2023-05-29T06:29:05;16.80;99.90
34740;DHT22;20967;48.442;9.994;2023-05-29T06:31:33;17.10;99.90
34740;DHT22;20967;48.442;9.994;2023-05-29T06:34:01;16.70;99.90
34740;DHT22;20967;48.442;9.994;2023-05-29T06:36:29;16.60;99.90
34740;DHT22;20967;48.442;9.994;2023-05-29T06:38:58;16.40;99.90
34740;DHT22;20967;48.442;9.994;2023-05-29T06:41:26;16.30;99.90
34740;DHT22;20967;48.442;9.994;2023-05-29T06:43:54;16.50;99.90
34740;DHT22;20967;48.442;9.994;2023-05-29T06:46:21;16.40;99.90
34740;DHT22;20967;48.442;9.994;2023-05-29T06:48:49;16.40;99.90
34740;DHT22;20967;48.442;9.994;2023-05-29T06:51:17;16.30;99.90
34740;DHT22;20967;48.442;9.994;2023-05-29T06:53:45;16.30;99.90
34740;DHT22;20967;48.442;9.994;2023-05-29T06:56:13;16.30;99.90
34740;DHT22;20967;48.442;9.994;2023-05-29T06:58:42;16.20;99.90
34740;DHT22;20967;48.442;9.994;2023-05-29T07:01:12;16.30;99.90
34740;DHT22;20967;48.442;9.994;2023-05-29T07:03:40;16.30;99.90
34740;DHT22;20967;48.442;9.994;2023-05-29T07:06:07;16.20;99.90
34740;DHT22;20967;48.442;9.994;2023-05-29T07:08:37;16.20;99.90
34740;DHT22;20967;48.442;9.994;2023-05-29T07:11:05;16.20;99.90
34740;DHT22;20967;48.442;9.994;2023-05-29T07:13:33;16.50;99.90
34740;DHT22;20967;48.442;9.994;2023-05-29T07:16:00;16.40;99.90
34740;DHT22;20967;48.442;9.994;2023-05-29T07:18:28;16.80;99.90
34740;DHT22;20967;48.442;9.994;2023-05-29T07:20:59;16.60;99.90
34740;DHT22;20967;48.442;9.994;2023-05-29T07:23:26;16.50;99.90
34740;DHT22;20967;48.442;9.994;2023-05-29T07:25:54;16.50;99.90
34740;DHT22;20967;48.442;9.994;2023-05-29T07:28:22;16.50;99.90
34740;DHT22;20967;48.442;9.994;2023-05-29T07:30:49;16.40;99.90
34740;DHT22;20967;48.442;9.994;2023-05-29T07:33:17;16.60;99.90
34740;DHT22;20967;48.442;9.994;2023-05-29T07:35:45;17.00;99.90
34740;DHT22;20967;48.442;9.994;2023-05-29T07:38:13;17.00;99.90
34740;DHT22;20967;48.442;9.994;2023-05-29T07:40:40;16.80;99.90
34740;DHT22;20967;48.442;9.994;2023-05-29T07:43:08;16.90;99.90
34740;DHT22;20967;48.442;9.994;2023-05-29T07:45:36;17.00;99.90
34740;DHT22;20967;48.442;9.994;2023-05-29T07:48:04;16.90;99.90
34740;DHT22;20967;48.442;9.994;2023-05-29T07:50:32;17.20;99.90
34740;DHT22;20967;48.442;9.994;2023-05-29T07:53:00;17.30;99.90
34740;DHT22;20967;48.442;9.994;2023-05-29T07:55:28;17.10;99.90
34740;DHT22;20967;48.442;9.994;2023-05-29T07:57:56;17.00;99.90
34740;DHT22;20967;48.442;9.994;2023-05-29T08:00:24;17.40;99.90
34740;DHT22;20967;48.442;9.994;2023-05-29T08:02:52;17.50;99.90
34740;DHT22;20967;48.442;9.994;2023-05-29T08:05:20;17.60;99.90
34740;DHT22;20967;48.442;9.994;2023-05-29T08:07:48;17.50;99.90
34740;DHT22;20967;48.442;9.994;2023-05-29T08:10:16;17.90;99.90
34740;DHT22;20967;48.442;9.994;2023-05-29T08:12:43;17.80;99.90
34740;DHT22;20967;48.442;9.994;2023-05-29T08:15:11;18.10;99.90
34740;DHT22;20967;48.442;9.994;2023-05-29T08:17:39;18.10;99.90
34740;DHT22;20967;48.442;9.994;2023-05-29T08:20:08;18.30;99.90
34740;DHT22;20967;48.442;9.994;2023-05-29T08:22:37;18.10;99.90
34740;DHT22;20967;48.442;9.994;2023-05-29T08:25:05;18.00;99.90
34740;DHT22;20967;48.442;9.994;2023-05-29T08:27:32;18.00;99.90
34740;DHT22;20967;48.442;9.994;2023-05-29T08:30:00;17.90;99.90
34740;DHT22;20967;48.442;9.994;2023-05-29T08:32:28;18.00;99.90
34740;DHT22;20967;48.442;9.994;2023-05-29T08:34:56;18.00;99.90
34740;DHT22;20967;48.442;9.994;2023-05-29T08:37:24;18.00;99.90
34740;DHT22;20967;48.442;9.994;2023-05-29T08:39:52;18.30;99.90
34740;DHT22;20967;48.442;9.994;2023-05-29T08:42:26;18.50;99.90
34740;DHT22;20967;48.442;9.994;2023-05-29T08:44:55;18.50;99.90
34740;DHT22;20967;48.442;9.994;2023-05-29T08:47:27;18.60;99.90
34740;DHT22;20967;48.442;9.994;2023-05-29T08:49:59;18.70;99.90
34740;DHT22;20967;48.442;9.994;2023-05-29T08:52:32;18.80;99.90
34740;DHT22;20967;48.442;9.994;2023-05-29T08:54:59;18.90;99.90
34740;DHT22;20967;48.442;9.994;2023-05-29T08:57:29;18.90;99.90
34740;DHT22;20967;48.442;9.994;2023-05-29T08:59:57;18.90;99.90
34740;DHT22;20967;48.442;9.994;2023-05-29T09:02:25;18.90;99.90
34740;DHT22;20967;48.442;9.994;2023-05-29T09:04:54;19.00;99.90
34740;DHT22;20967;48.442;9.994;2023-05-29T09:07:23;19.00;99.90
34740;DHT22;20967;48.442;9.994;2023-05-29T09:09:52;19.00;99.90
34740;DHT22;20967;48.442;9.994;2023-05-29T09:12:20;19.20;99.90
34740;DHT22;20967;48.442;9.994;2023-05-29T09:14:48;19.10;99.90
34740;DHT22;20967;48.442;9.994;2023-05-29T09:17:16;19.30;99.90
34740;DHT22;20967;48.442;9.994;2023-05-29T09:19:44;19.40;99.90
34740;DHT22;20967;48.442;9.994;2023-05-29T09:22:13;19.30;99.90
34740;DHT22;20967;48.442;9.994;2023-05-29T09:24:47;19.10;99.90
34740;DHT22;20967;48.442;9.994;2023-05-29T09:27:15;19.20;99.90
34740;DHT22;20967;48.442;9.994;2023-05-29T09:29:45;19.10;99.90
34740;DHT22;20967;48.442;9.994;2023-05-29T09:32:17;19.20;99.90
34740;DHT22;20967;48.442;9.994;2023-05-29T09:34:45;19.30;99.90
34740;DHT22;20967;48.442;9.994;2023-05-29T09:37:15;19.20;99.90
34740;DHT22;20967;48.442;9.994;2023-05-29T09:39:46;19.00;99.90
34740;DHT22;20967;48.442;9.994;2023-05-29T09:42:15;19.20;99.90
34740;DHT22;20967;48.442;9.994;2023-05-29T09:44:50;19.30;99.90
34740;DHT22;20967;48.442;9.994;2023-05-29T09:47:18;19.40;99.90
34740;DHT22;20967;48.442;9.994;2023-05-29T09:49:46;19.40;99.90
34740;DHT22;20967;48.442;9.994;2023-05-29T09:52:15;19.60;99.90
34740;DHT22;20967;48.442;9.994;2023-05-29T09:54:44;19.60;99.90
34740;DHT22;20967;48.442;9.994;2023-05-29T09:57:16;19.30;99.90
34740;DHT22;20967;48.442;9.994;2023-05-29T09:59:45;19.60;99.90
34740;DHT22;20967;48.442;9.994;2023-05-29T10:02:15;19.50;99.90
34740;DHT22;20967;48.442;9.994;2023-05-29T10:04:43;19.50;99.90
34740;DHT22;20967;48.442;9.994;2023-05-29T10:09:47;19.50;99.90
34740;DHT22;20967;48.442;9.994;2023-05-29T10:12:19;19.50;99.90
34740;DHT22;20967;48.442;9.994;2023-05-29T10:14:49;19.70;99.90
34740;DHT22;20967;48.442;9.994;2023-05-29T10:17:19;19.60;99.90
34740;DHT22;20967;48.442;9.994;2023-05-29T10:19:49;19.80;99.90
34740;DHT22;20967;48.442;9.994;2023-05-29T10:22:19;19.90;99.90
34740;DHT22;20967;48.442;9.994;2023-05-29T10:24:49;20.10;99.90
34740;DHT22;20967;48.442;9.994;2023-05-29T10:27:18;20.10;99.90
34740;DHT22;20967;48.442;9.994;2023-05-29T10:29:49;19.80;99.90
34740;DHT22;20967;48.442;9.994;2023-05-29T10:32:32;19.90;99.90
34740;DHT22;20967;48.442;9.994;2023-05-29T10:35:22;19.80;99.90
34740;DHT22;20967;48.442;9.994;2023-05-29T10:40:10;20.00;99.90
34740;DHT22;20967;48.442;9.994;2023-05-29T10:42:48;20.00;99.90
34740;DHT22;20967;48.442;9.994;2023-05-29T10:50:43;20.40;99.90
34740;DHT22;20967;48.442;9.994;2023-05-29T10:53:16;20.20;99.90
34740;DHT22;20967;48.442;9.994;2023-05-29T10:55:45;20.20;99.90
34740;DHT22;20967;48.442;9.994;2023-05-29T10:58:17;20.40;99.90
34740;DHT22;20967;48.442;9.994;2023-05-29T11:00:45;20.30;99.90
34740;DHT22;20967;48.442;9.994;2023-05-29T11:03:25;20.30;99.90
34740;DHT22;20967;48.442;9.994;2023-05-29T11:06:20;20.20;99.90
34740;DHT22;20967;48.442;9.994;2023-05-29T11:08:55;20.40;99.90
34740;DHT22;20967;48.442;9.994;2023-05-29T11:11:31;20.30;99.90
34740;DHT22;20967;48.442;9.994;2023-05-29T11:14:03;20.40;99.90
34740;DHT22;20967;48.442;9.994;2023-05-29T11:19:06;20.50;99.90
34740;DHT22;20967;48.442;9.994;2023-05-29T11:21:59;20.50;99.90
34740;DHT22;20967;48.442;9.994;2023-05-29T11:24:28;20.60;99.90
34740;DHT22;20967;48.442;9.994;2023-05-29T11:26:58;20.80;99.90
34740;DHT22;20967;48.442;9.994;2023-05-29T11:29:28;20.60;99.90
34740;DHT22;20967;48.442;9.994;2023-05-29T11:32:04;20.60;99.90
34740;DHT22;20967;48.442;9.994;2023-05-29T11:34:32;20.60;99.90
34740;DHT22;20967;48.442;9.994;2023-05-29T11:37:01;20.70;99.90
34740;DHT22;20967;48.442;9.994;2023-05-29T11:39:30;20.70;99.90
34740;DHT22;20967;48.442;9.994;2023-05-29T11:42:01;20.70;99.90
34740;DHT22;20967;48.442;9.994;2023-05-29T11:44:29;20.70;99.90
34740;DHT22;20967;48.442;9.994;2023-05-29T11:47:01;20.90;99.90
34740;DHT22;20967;48.442;9.994;2023-05-29T11:49:30;20.80;99.90
34740;DHT22;20967;48.442;9.994;2023-05-29T11:52:09;21.00;99.90
34740;DHT22;20967;48.442;9.994;2023-05-29T11:54:39;20.80;99.90
34740;DHT22;20967;48.442;9.994;2023-05-29T11:57:08;20.90;99.90
34740;DHT22;20967;48.442;9.994;2023-05-29T11:59:36;21.00;99.90
34740;DHT22;20967;48.442;9.994;2023-05-29T12:02:05;20.90;99.90
34740;DHT22;20967;48.442;9.994;2023-05-29T12:04:33;21.00;99.90
34740;DHT22;20967;48.442;9.994;2023-05-29T12:07:01;21.10;99.90
34740;DHT22;20967;48.442;9.994;2023-05-29T12:09:29;20.90;99.90
34740;DHT22;20967;48.442;9.994;2023-05-29T12:12:04;21.00;99.90
34740;DHT22;20967;48.442;9.994;2023-05-29T12:14:32;21.10;99.90
34740;DHT22;20967;48.442;9.994;2023-05-29T12:17:00;21.20;99.90
34740;DHT22;20967;48.442;9.994;2023-05-29T12:19:28;21.10;99.90
34740;DHT22;20967;48.442;9.994;2023-05-29T12:21:57;21.00;99.90
34740;DHT22;20967;48.442;9.994;2023-05-29T12:24:24;21.10;99.90
34740;DHT22;20967;48.442;9.994;2023-05-29T12:26:52;21.20;99.90
34740;DHT22;20967;48.442;9.994;2023-05-29T12:29:20;21.00;99.90
34740;DHT22;20967;48.442;9.994;2023-05-29T12:31:57;21.20;99.90
34740;DHT22;20967;48.442;9.994;2023-05-29T12:34:20;21.30;99.90
34740;DHT22;20967;48.442;9.994;2023-05-29T12:36:48;21.20;99.90
34740;DHT22;20967;48.442;9.994;2023-05-29T12:39:16;21.20;99.90
34740;DHT22;20967;48.442;9.994;2023-05-29T12:41:43;21.20;99.90
34740;DHT22;20967;48.442;9.994;2023-05-29T12:44:11;21.20;99.90
34740;DHT22;20967;48.442;9.994;2023-05-29T12:46:41;21.20;99.90
34740;DHT22;20967;48.442;9.994;2023-05-29T12:49:15;21.00;99.90
34740;DHT22;20967;48.442;9.994;2023-05-29T12:51:45;21.40;99.90
34740;DHT22;20967;48.442;9.994;2023-05-29T12:54:14;21.30;99.90
34740;DHT22;20967;48.442;9.994;2023-05-29T12:56:43;21.40;99.90
34740;DHT22;20967;48.442;9.994;2023-05-29T12:59:12;21.40;99.90
34740;DHT22;20967;48.442;9.994;2023-05-29T13:01:42;21.60;99.90
34740;DHT22;20967;48.442;9.994;2023-05-29T13:04:10;21.40;99.90
34740;DHT22;20967;48.442;9.994;2023-05-29T13:06:39;21.30;99.90
34740;DHT22;20967;48.442;9.994;2023-05-29T13:09:07;21.40;99.90
34740;DHT22;20967;48.442;9.994;2023-05-29T13:11:35;21.70;99.90
34740;DHT22;20967;48.442;9.994;2023-05-29T13:14:03;21.40;99.90
34740;DHT22;20967;48.442;9.994;2023-05-29T13:16:31;21.80;99.90
34740;DHT22;20967;48.442;9.994;2023-05-29T13:18:59;21.70;99.90
34740;DHT22;20967;48.442;9.994;2023-05-29T13:21:26;21.50;99.90
34740;DHT22;20967;48.442;9.994;2023-05-29T13:23:54;21.50;99.90
34740;DHT22;20967;48.442;9.994;2023-05-29T13:26:22;21.50;99.90
34740;DHT22;20967;48.442;9.994;2023-05-29T13:28:51;21.60;99.90
34740;DHT22;20967;48.442;9.994;2023-05-29T13:31:18;21.60;99.90
34740;DHT22;20967;48.442;9.994;2023-05-29T13:33:48;21.80;99.90
34740;DHT22;20967;48.442;9.994;2023-05-29T13:36:16;21.40;99.90
34740;DHT22;20967;48.442;9.994;2023-05-29T13:38:44;21.50;99.90
34740;DHT22;20967;48.442;9.994;2023-05-29T13:41:13;21.50;99.90
34740;DHT22;20967;48.442;9.994;2023-05-29T13:43:40;21.70;99.90
34740;DHT22;20967;48.442;9.994;2023-05-29T13:46:08;21.50;99.90
34740;DHT22;20967;48.442;9.994;2023-05-29T13:48:36;21.40;99.90
34740;DHT22;20967;48.442;9.994;2023-05-29T13:51:04;21.40;99.90
34740;DHT22;20967;48.442;9.994;2023-05-29T13:53:32;21.50;99.90
34740;DHT22;20967;48.442;9.994;2023-05-29T13:56:00;21.50;99.90
34740;DHT22;20967;48.442;9.994;2023-05-29T13:58:28;21.60;99.90
34740;DHT22;20967;48.442;9.994;2023-05-29T14:00:55;21.70;99.90
34740;DHT22;20967;48.442;9.994;2023-05-29T14:03:23;21.60;99.90
34740;DHT22;20967;48.442;9.994;2023-05-29T14:05:53;21.50;99.90
34740;DHT22;20967;48.442;9.994;2023-05-29T14:08:20;21.50;99.90
34740;DHT22;20967;48.442;9.994;2023-05-29T14:10:48;21.50;99.90
34740;DHT22;20967;48.442;9.994;2023-05-29T14:13:17;21.70;99.90
34740;DHT22;20967;48.442;9.994;2023-05-29T14:15:45;21.80;99.90
34740;DHT22;20967;48.442;9.994;2023-05-29T14:18:13;21.80;99.90
34740;DHT22;20967;48.442;9.994;2023-05-29T14:20:40;21.80;99.90
34740;DHT22;20967;48.442;9.994;2023-05-29T14:23:08;21.90;99.90
34740;DHT22;20967;48.442;9.994;2023-05-29T14:25:39;21.90;99.90
34740;DHT22;20967;48.442;9.994;2023-05-29T14:28:07;21.80;99.90
34740;DHT22;20967;48.442;9.994;2023-05-29T14:30:35;21.70;99.90
34740;DHT22;20967;48.442;9.994;2023-05-29T14:33:03;21.60;99.90
34740;DHT22;20967;48.442;9.994;2023-05-29T14:35:31;21.80;99.90
34740;DHT22;20967;48.442;9.994;2023-05-29T14:37:58;21.70;99.90
34740;DHT22;20967;48.442;9.994;2023-05-29T14:40:26;21.80;99.90
34740;DHT22;20967;48.442;9.994;2023-05-29T14:42:54;21.90;99.90
34740;DHT22;20967;48.442;9.994;2023-05-29T14:45:22;21.80;99.90
34740;DHT22;20967;48.442;9.994;2023-05-29T14:47:49;21.80;99.90
34740;DHT22;20967;48.442;9.994;2023-05-29T14:50:18;21.80;99.90
34740;DHT22;20967;48.442;9.994;2023-05-29T14:52:47;21.70;99.90
34740;DHT22;20967;48.442;9.994;2023-05-29T14:55:14;21.80;99.90
34740;DHT22;20967;48.442;9.994;2023-05-29T14:57:42;21.80;99.90
34740;DHT22;20967;48.442;9.994;2023-05-29T15:00:11;21.90;99.90
34740;DHT22;20967;48.442;9.994;2023-05-29T15:02:40;21.90;99.90
34740;DHT22;20967;48.442;9.994;2023-05-29T15:05:08;21.80;99.90
34740;DHT22;20967;48.442;9.994;2023-05-29T15:07:37;21.80;99.90
34740;DHT22;20967;48.442;9.994;2023-05-29T15:10:05;21.90;99.90
34740;DHT22;20967;48.442;9.994;2023-05-29T15:12:33;21.80;99.90
34740;DHT22;20967;48.442;9.994;2023-05-29T15:15:03;21.80;99.90
34740;DHT22;20967;48.442;9.994;2023-05-29T15:17:31;21.90;99.90
34740;DHT22;20967;48.442;9.994;2023-05-29T15:19:58;22.00;99.90
34740;DHT22;20967;48.442;9.994;2023-05-29T15:22:27;21.80;99.90
34740;DHT22;20967;48.442;9.994;2023-05-29T15:24:55;21.70;99.90
34740;DHT22;20967;48.442;9.994;2023-05-29T15:27:23;21.80;99.90
34740;DHT22;20967;48.442;9.994;2023-05-29T15:29:52;21.80;99.90
34740;DHT22;20967;48.442;9.994;2023-05-29T15:32:20;21.80;99.90
34740;DHT22;20967;48.442;9.994;2023-05-29T15:34:48;21.90;99.90
34740;DHT22;20967;48.442;9.994;2023-05-29T15:37:15;21.90;99.90
34740;DHT22;20967;48.442;9.994;2023-05-29T15:39:43;21.90;99.90
34740;DHT22;20967;48.442;9.994;2023-05-29T15:42:11;22.00;99.90
34740;DHT22;20967;48.442;9.994;2023-05-29T15:44:40;22.00;99.90
34740;DHT22;20967;48.442;9.994;2023-05-29T15:47:08;21.80;99.90
34740;DHT22;20967;48.442;9.994;2023-05-29T15:49:36;21.80;99.90
34740;DHT22;20967;48.442;9.994;2023-05-29T15:52:04;21.80;99.90
34740;DHT22;20967;48.442;9.994;2023-05-29T15:54:32;21.90;99.90
34740;DHT22;20967;48.442;9.994;2023-05-29T15:56:59;21.80;99.90
34740;DHT22;20967;48.442;9.994;2023-05-29T15:59:29;21.80;99.90
34740;DHT22;20967;48.442;9.994;2023-05-29T16:01:57;21.90;99.90